UASKUASS

Guest
Details From UASK - UST KAMENOGORSK
To UASS - SEMIPALATINSK
Flight Number -
Tags generated
Created
Modified
Stats Distance 89 nm / 165 km
Max Altitude 9,500 ft / 2,896 m
Waypoints 3
Social Downloads 1
Likes 0
Share VATSIM

Download

Looking for another format? Having issues loading an existing format? Contact us
Advertisement - Login to hide

Notes

Basic altitude profile: - Ascent Rate: 2500ft/min - Ascent Speed: 250kts - Cruise Altitude: 35000ft - Cruise Speed: 420kts - Descent Rate: 1500ft/min - Descent Speed: 250kts Options: - Use NATs: yes - Use PACOTS: yes - Use low airways: yes - Use high airways: yes

Route

UASK A241 UASS

ID Type Via Altitude Latitude Longitude Leg Dist Tot Dist Heading (true) Name
O UASK APT - 0 ft / 0 m 50.03415˚ 82.49941˚ - 0 nm - UST KAMENOGORSK
LIRNA FIX A241 (AWY-LO) 9,500 ft / 2,896 m 50.19972˚ 81.36750˚ 44 nm 44 nm 283° / 282° -
O UASS APT A241 (AWY-LO) 4,900 ft / 1,494 m 50.35038˚ 80.23384˚ 44 nm 89 nm 282° / 281° SEMIPALATINSK

Altitude Profile

Advertisement - Login to hide

UASK

Details ICAO UASK (UKK)
Name UST KAMENOGORSK
Region Kazakhstan and Kyrgyzstan
Timezone Asia/Almaty (UTC+6.0)
Stats Elevation 939 ft / 286 m (AMSL)
Location 50.034154° 82.499412°
Runways 2
Magnetic Variation 6.478° E

METAR

UASK 170630Z 00000MPS 1700 R12/1700 BR PRFG SCT003 M22/M24 Q1044 R12/420150 NOSIG RMK QBB110 QFE756/1009

Decode

TAF

Not found

Departure Runways

ID Width Length Bearing (true) Bearing (mag) Surface Threshold Offset Overrun Length
12 138 ft / 42 m 8,223 ft / 2,507 m 130.67° 124.19° Asphalt 0 ft / 0 m 160 ft / 49 m
12L 200 ft / 61 m 6,078 ft / 1,853 m 130.78° 124.30° Grass 0 ft / 0 m 0 ft / 0 m
30 138 ft / 42 m 8,223 ft / 2,507 m 310.69° 304.21° Asphalt 0 ft / 0 m 160 ft / 49 m
30R 200 ft / 61 m 6,078 ft / 1,853 m 310.80° 304.32° Grass 0 ft / 0 m 0 ft / 0 m

UASS

Details ICAO UASS (PLX)
Name SEMIPALATINSK
Region Kazakhstan and Kyrgyzstan
Timezone Asia/Almaty (UTC+6.0)
Stats Elevation 761 ft / 232 m (AMSL)
Location 50.350376° 80.233836°
Runways 2
Magnetic Variation 7.346° E

METAR

UASS 170630Z 11002MPS CAVOK M24/M27 Q1045 NOSIG RMK QFE765/1020

Decode

TAF

Not found

Destination Runways

ID Width Length Bearing (true) Bearing (mag) Surface Threshold Offset Overrun Length
02 253 ft / 77 m 3,267 ft / 996 m 23.42° 16.07° Concrete 0 ft / 0 m 0 ft / 0 m
08 145 ft / 44 m 10,130 ft / 3,088 m 83.67° 76.32° Concrete 0 ft / 0 m 0 ft / 0 m
20 253 ft / 77 m 3,267 ft / 996 m 203.43° 196.08° Concrete 0 ft / 0 m 0 ft / 0 m
26 145 ft / 44 m 10,130 ft / 3,088 m 263.70° 256.35° Concrete 0 ft / 0 m 0 ft / 0 m

Approach Navaids

Runway Type Ident Frequency Range Bearing (true) Bearing (mag) Slope Elevation
26 Localiser ISP 110.30 MHz 18 nm / 33 km 263.68° 256.33° - 761 ft / 232 m (AMSL)
26 Glidescope ISP 110.30 MHz 10 nm / 19 km 263.69° 256.34° 2.40° 761 ft / 232 m (AMSL)

Popular Alternatives